Time;durP1;ratioP1;P1;durP2;ratioP2;P2;SDS_P1;SDS_P2;PMS_P1;PMS_P2;Temp;Humidity;BMP_temperature;BMP_pressure;BME280_temperature;BME280_humidity;BME280_pressure;Samples;Min_cycle;Max_cycle;Signal;HPM_P1;HPM_P2
2022/04/17 00:01:28;;;;;;;15.77;14.10;;;;;;;29.20;64.23;100772.53;5035101;28;70436;-37
2022/04/17 00:04:10;;;;;;;16.13;14.07;;;;;;;29.28;64.37;100784.97;5053445;28;66685;-37
2022/04/17 00:06:47;;;;;;;15.32;13.90;;;;;;;29.33;64.33;100783.28;5039491;28;70641;-37
2022/04/17 00:09:41;;;;;;;15.88;14.50;;;;;;;29.37;64.81;100789.94;5039416;28;65999;-36
2022/04/17 00:12:13;;;;;;;16.50;15.02;;;;;;;29.45;65.21;100801.53;5031980;28;69559;-37
2022/04/17 00:14:44;;;;;;;15.15;13.90;;;;;;;29.50;65.71;100809.84;5032652;28;66396;-37
2022/04/17 00:17:28;;;;;;;19.35;15.20;;;;;;;29.56;66.34;100809.00;5028173;28;69934;-38
2022/04/17 00:20:06;;;;;;;17.75;15.35;;;;;;;29.63;66.55;100823.38;5034379;28;65533;-37
2022/04/17 00:22:46;;;;;;;15.85;14.32;;;;;;;29.64;66.31;100819.59;5018119;28;71099;-38
2022/04/17 00:25:24;;;;;;;16.80;14.95;;;;;;;29.69;64.78;100824.38;5032868;28;66632;-38
2022/04/17 00:28:04;;;;;;;17.75;14.57;;;;;;;29.66;66.52;100819.41;5034748;28;70288;-38
2022/04/17 00:30:39;;;;;;;16.45;14.90;;;;;;;29.72;66.68;100827.47;5035199;28;66190;-38
2022/04/17 00:33:16;;;;;;;17.95;14.27;;;;;;;29.75;66.35;100832.47;5034920;28;71286;-37
2022/04/17 00:35:53;;;;;;;17.77;15.95;;;;;;;29.73;66.70;100822.94;5046346;28;66421;-37
2022/04/17 00:38:24;;;;;;;19.20;17.10;;;;;;;29.71;67.08;100806.91;5028422;28;69439;-37
2022/04/17 00:40:58;;;;;;;18.75;15.80;;;;;;;29.90;64.23;100825.97;5038809;28;66032;-37
2022/04/17 00:43:43;;;;;;;21.27;14.90;;;;;;;29.99;63.26;100840.91;5036921;28;70295;-36
2022/04/17 00:46:31;;;;;;;15.10;13.75;;;;;;;30.03;63.57;100842.97;5037387;28;66792;-36
2022/04/17 00:49:11;;;;;;;16.80;14.35;;;;;;;30.17;63.21;100846.44;5035047;28;70788;-37
2022/04/17 00:51:47;;;;;;;18.80;17.02;;;;;;;29.87;62.90;100796.66;5039062;28;66438;-37
2022/04/17 00:54:33;;;;;;;17.10;15.48;;;;;;;30.17;63.10;100835.63;5038138;28;72332;-37
2022/04/17 00:57:08;;;;;;;16.00;14.55;;;;;;;30.34;62.39;100854.06;5038286;28;65683;-36
2022/04/17 00:59:47;;;;;;;18.65;15.50;;;;;;;30.35;62.69;100855.72;5029921;28;70414;-36
2022/04/17 01:02:21;;;;;;;16.80;15.15;;;;;;;30.44;63.04;100871.47;5033797;28;66504;-36
2022/04/17 01:04:59;;;;;;;15.60;14.07;;;;;;;30.46;62.77;100869.41;5038552;28;70091;-36
2022/04/17 01:07:38;;;;;;;14.75;13.73;;;;;;;30.55;62.76;100888.91;5038187;28;65615;-36
2022/04/17 01:10:10;;;;;;;15.93;14.30;;;;;;;30.43;62.02;100858.19;5039273;28;71324;-36
2022/04/17 01:12:40;;;;;;;;;;;;;;;30.24;66.63;100881.59;5037509;28;66372;-37
2022/04/17 01:15:11;;;;;;;24.17;20.90;;;;;;;30.31;66.54;100873.44;5037688;28;70479;-37
2022/04/17 01:17:42;;;;;;;19.63;17.85;;;;;;;30.12;66.87;100856.25;5031372;28;66297;-37
2022/04/17 01:20:15;;;;;;;24.95;17.70;;;;;;;30.22;67.16;100879.09;5036998;28;69299;-39
2022/04/17 01:26:56;;;;;;;19.05;17.20;;;;;;;30.19;67.37;100874.09;5034240;28;66752;-37
2022/04/17 01:28:43;;;;;;;20.88;17.33;;;;;;;30.07;67.72;100862.28;5031030;28;67212;-36
2022/04/17 01:31:20;;;;;;;19.10;17.10;;;;;;;30.11;68.09;100874.34;5039119;28;69922;-36
2022/04/17 01:34:00;;;;;;;17.63;16.02;;;;;;;30.15;68.00;100872.88;5027660;28;66839;-36
2022/04/17 01:36:32;;;;;;;25.35;17.15;;;;;;;30.17;68.70;100876.19;5027549;28;70451;-37
2022/04/17 01:39:02;;;;;;;19.52;17.65;;;;;;;30.17;68.81;100876.19;5028344;28;66092;-38
2022/04/17 01:41:33;;;;;;;16.95;15.40;;;;;;;30.19;68.69;100876.78;5034160;28;70474;-37
2022/04/17 01:44:06;;;;;;;18.80;17.00;;;;;;;30.20;68.99;100881.19;5030107;28;67064;-38
2022/04/17 01:46:37;;;;;;;20.25;18.02;;;;;;;30.26;68.55;100888.44;5029222;28;69566;-36
2022/04/17 01:49:08;;;;;;;20.60;18.33;;;;;;;30.31;69.24;100886.97;5028817;28;66636;-37
2022/04/17 01:51:40;;;;;;;23.80;18.85;;;;;;;30.34;68.36;100881.13;5026547;28;71266;-47
2022/04/17 01:54:13;;;;;;;21.85;18.83;;;;;;;30.40;68.75;100874.84;5033831;28;66189;-37
2022/04/17 01:56:47;;;;;;;24.42;18.83;;;;;;;30.26;68.17;100849.75;5031696;28;70428;-36
2022/04/17 01:59:20;;;;;;;23.05;19.67;;;;;;;30.06;68.40;100803.81;5028759;28;66933;-36
2022/04/17 02:01:51;;;;;;;21.73;19.52;;;;;;;30.49;68.42;100868.13;5028879;28;70250;-36
2022/04/17 02:04:26;;;;;;;26.15;19.52;;;;;;;30.54;68.46;100871.00;5027656;28;66245;-37
2022/04/17 02:06:57;;;;;;;19.80;17.98;;;;;;;30.46;68.60;100855.03;5029466;28;69575;-38
2022/04/17 02:09:28;;;;;;;22.00;18.73;;;;;;;30.48;68.38;100844.81;5026543;28;66119;-37
2022/04/17 02:11:59;;;;;;;24.90;18.75;;;;;;;30.65;67.99;100877.63;5029437;28;70928;-36
2022/04/17 02:14:30;;;;;;;21.63;18.75;;;;;;;30.67;67.80;100878.19;5032909;28;67481;-36
2022/04/17 02:17:02;;;;;;;21.40;16.30;;;;;;;30.86;66.28;100876.44;5050230;28;70007;-36
2022/04/17 02:19:33;;;;;;;20.85;15.13;;;;;;;30.90;66.53;100870.38;5031716;28;66141;-35
2022/04/17 02:22:04;;;;;;;16.17;14.52;;;;;;;31.09;65.15;100873.09;5038130;28;69775;-36
2022/04/17 02:24:35;;;;;;;20.87;15.07;;;;;;;31.12;65.49;100878.94;5026605;28;66364;-36
2022/04/17 02:27:06;;;;;;;16.75;13.73;;;;;;;31.24;65.07;100881.75;5029199;28;70571;-36
2022/04/17 02:29:38;;;;;;;14.70;13.52;;;;;;;31.30;64.37;100875.41;5028966;28;67410;-35
2022/04/17 02:32:09;;;;;;;16.00;14.38;;;;;;;31.37;64.32;100881.66;5029603;28;70012;-36
2022/04/17 02:34:41;;;;;;;14.70;13.60;;;;;;;31.41;63.86;100873.88;5028822;28;65662;-36
2022/04/17 02:37:12;;;;;;;15.18;13.68;;;;;;;31.48;63.50;100877.38;5038122;28;70054;-36
2022/04/17 02:39:43;;;;;;;14.13;12.93;;;;;;;31.55;63.65;100872.69;5037711;28;66346;-35
2022/04/17 02:42:14;;;;;;;13.32;12.13;;;;;;;31.58;63.46;100872.25;5041571;28;69232;-35
2022/04/17 02:44:45;;;;;;;12.95;11.98;;;;;;;31.31;63.24;100819.31;5031775;28;66557;-35
2022/04/17 02:50:07;;;;;;;13.45;12.52;;;;;;;31.66;62.82;100862.16;5028152;28;65819;-35
2022/04/17 02:52:38;;;;;;;14.00;12.68;;;;;;;31.45;62.72;100823.56;5034857;28;70203;-35
2022/04/17 02:55:10;;;;;;;14.00;12.73;;;;;;;31.82;62.51;100878.66;5038547;28;66397;-36
2022/04/17 02:57:41;;;;;;;12.75;11.95;;;;;;;31.85;61.96;100881.97;5029678;28;69540;-36
2022/04/17 03:00:13;;;;;;;13.63;12.43;;;;;;;31.86;62.23;100879.03;5038004;28;65215;-36
2022/04/17 03:05:37;;;;;;;13.05;12.15;;;;;;;31.96;61.62;100873.94;5035462;28;65330;-36
2022/04/17 03:08:12;;;;;;;15.63;14.23;;;;;;;31.63;63.17;100854.47;5034028;28;69943;-36
2022/04/17 03:10:48;;;;;;;18.65;16.95;;;;;;;31.51;64.83;100855.22;5032015;28;65414;-35
2022/04/17 03:13:19;;;;;;;15.52;14.18;;;;;;;31.69;64.03;100861.69;5026816;28;69332;-35
2022/04/17 03:15:50;;;;;;;16.67;15.03;;;;;;;31.54;64.51;100841.22;5027882;28;64835;-35
2022/04/17 03:18:21;;;;;;;22.47;15.33;;;;;;;31.72;64.68;100851.22;5032517;28;69719;-35
2022/04/17 03:20:52;;;;;;;14.25;13.35;;;;;;;31.89;64.11;100861.47;5027909;28;66100;-35
2022/04/17 03:23:24;;;;;;;20.20;14.70;;;;;;;31.93;63.93;100863.53;5027961;28;70525;-35
2022/04/17 03:25:55;;;;;;;18.95;13.38;;;;;;;31.72;63.89;100807.84;5031770;28;66792;-35
2022/04/17 03:28:27;;;;;;;17.77;13.70;;;;;;;31.95;63.32;100836.16;5002776;28;69750;-35
2022/04/17 03:30:58;;;;;;;18.67;12.90;;;;;;;32.00;63.24;100847.97;5034798;28;66605;-35
2022/04/17 03:33:31;;;;;;;16.20;12.73;;;;;;;32.08;63.16;100854.16;5032634;28;70019;-35
2022/04/17 03:36:02;;;;;;;19.07;13.57;;;;;;;32.08;62.63;100849.56;5032784;28;65178;-35
2022/04/17 03:38:33;;;;;;;14.97;13.37;;;;;;;32.03;62.41;100836.66;5029089;28;69023;-35
2022/04/17 03:41:05;;;;;;;16.70;13.30;;;;;;;32.05;62.81;100836.44;5028376;28;67823;-35
2022/04/17 03:43:36;;;;;;;13.50;12.38;;;;;;;32.17;62.40;100847.34;5028098;28;69209;-35
2022/04/17 03:46:07;;;;;;;16.23;13.87;;;;;;;32.18;62.08;100843.56;5032108;28;66425;-37
2022/04/17 03:48:40;;;;;;;17.33;13.00;;;;;;;32.19;62.46;100839.81;5047975;28;69314;-35
2022/04/17 03:51:11;;;;;;;14.30;12.93;;;;;;;32.21;62.18;100832.28;5038297;28;65871;-35
2022/04/17 03:53:42;;;;;;;18.95;12.82;;;;;;;32.20;61.81;100826.00;5028197;28;71914;-35
2022/04/17 03:56:13;;;;;;;13.00;11.88;;;;;;;32.25;61.75;100828.03;5030713;28;68008;-35
2022/04/17 03:58:44;;;;;;;13.43;12.30;;;;;;;32.25;61.73;100819.88;5021185;28;71005;-36
2022/04/17 04:01:15;;;;;;;13.80;12.53;;;;;;;32.26;61.33;100814.25;5040207;28;66664;-36
2022/04/17 04:03:47;;;;;;;13.40;12.20;;;;;;;32.31;61.56;100821.66;5035654;28;69439;-36
2022/04/17 04:06:19;;;;;;;13.43;12.30;;;;;;;32.30;61.44;100806.44;5024522;28;66548;-36
2022/04/17 04:08:50;;;;;;;13.88;12.45;;;;;;;32.35;61.55;100812.00;5030490;28;70728;-36
2022/04/17 04:11:21;;;;;;;14.55;12.30;;;;;;;32.36;60.98;100805.50;5029747;28;66473;-36
2022/04/17 04:13:53;;;;;;;15.73;12.63;;;;;;;32.40;61.06;100809.44;5026704;28;70027;-36
2022/04/17 04:16:24;;;;;;;12.63;11.70;;;;;;;32.39;60.75;100791.47;5034242;28;66113;-36
2022/04/17 04:18:55;;;;;;;12.87;12.07;;;;;;;32.39;60.73;100790.66;5035721;28;69378;-36
2022/04/17 04:21:27;;;;;;;12.98;11.93;;;;;;;32.44;60.86;100799.75;5033073;28;65990;-35
2022/04/17 04:23:59;;;;;;;13.65;12.25;;;;;;;32.50;60.65;100795.31;5032819;28;70307;-35
2022/04/17 04:26:30;;;;;;;14.23;12.95;;;;;;;32.52;60.51;100792.38;5032061;28;65126;-37
2022/04/17 04:29:01;;;;;;;12.07;11.27;;;;;;;32.43;60.62;100770.09;5029399;28;70198;-36
2022/04/17 04:31:32;;;;;;;12.45;11.43;;;;;;;32.54;60.39;100780.22;5030458;28;66395;-35
2022/04/17 04:34:03;;;;;;;12.50;11.60;;;;;;;32.53;60.27;100780.44;5030534;28;69089;-35
2022/04/17 04:36:34;;;;;;;13.27;12.18;;;;;;;32.59;60.20;100774.06;5029826;28;65023;-35
2022/04/17 04:39:06;;;;;;;12.07;11.27;;;;;;;32.60;60.10;100776.56;5030848;28;69228;-35
2022/04/17 04:41:37;;;;;;;12.00;11.15;;;;;;;32.61;59.87;100766.53;5038259;28;65634;-36
2022/04/17 04:44:07;;;;;;;12.45;11.40;;;;;;;32.63;59.55;100775.28;5031927;28;70134;-35
2022/04/17 04:46:39;;;;;;;11.98;11.05;;;;;;;32.60;59.61;100773.84;5036658;28;65791;-35
2022/04/17 04:52:03;;;;;;;11.80;10.82;;;;;;;32.73;59.68;100780.91;5034416;28;65474;-36
2022/04/17 04:54:34;;;;;;;12.35;11.23;;;;;;;32.68;59.87;100759.06;5031559;28;70466;-36
2022/04/17 04:57:07;;;;;;;12.35;11.25;;;;;;;32.74;59.47;100766.28;5027508;28;66392;-35
2022/04/17 04:59:39;;;;;;;11.95;11.15;;;;;;;32.72;59.34;100757.56;5025871;28;70171;-35
2022/04/17 05:02:10;;;;;;;12.45;10.90;;;;;;;32.68;59.35;100746.34;5033039;28;66468;-35
2022/04/17 05:04:41;;;;;;;11.73;10.93;;;;;;;32.82;59.35;100763.22;5034641;28;70122;-36
2022/04/17 05:07:12;;;;;;;11.68;10.45;;;;;;;32.70;59.38;100738.75;5033316;28;66576;-35
2022/04/17 05:09:45;;;;;;;11.07;10.32;;;;;;;32.86;59.12;100764.41;5032124;28;69746;-36
2022/04/17 05:12:16;;;;;;;10.63;10.02;;;;;;;32.78;58.93;100745.72;5029901;28;65557;-35
2022/04/17 05:14:47;;;;;;;10.45;9.85;;;;;;;32.87;58.88;100749.75;5025254;28;69349;-35
2022/04/17 05:17:17;;;;;;;11.25;10.40;;;;;;;32.86;59.10;100742.66;5030610;28;66129;-36
2022/04/17 05:19:49;;;;;;;11.00;10.27;;;;;;;32.90;58.81;100743.00;5032899;28;70136;-36
2022/04/17 05:22:22;;;;;;;10.75;10.10;;;;;;;32.92;59.14;100752.56;5031699;28;65276;-35
2022/04/17 05:24:54;;;;;;;10.85;10.05;;;;;;;32.96;58.52;100746.66;5029982;28;70114;-36
2022/04/17 05:27:27;;;;;;;10.98;10.00;;;;;;;32.94;58.60;100745.03;5018079;28;65240;-35
2022/04/17 05:29:59;;;;;;;10.68;9.70;;;;;;;32.89;58.41;100734.03;5035471;28;69560;-35
2022/04/17 05:32:29;;;;;;;10.68;9.88;;;;;;;33.00;58.68;100737.84;5031656;28;65819;-36
2022/04/17 05:35:00;;;;;;;10.75;10.15;;;;;;;32.84;58.58;100714.91;5030944;28;70812;-35
2022/04/17 05:37:31;;;;;;;10.23;9.55;;;;;;;33.05;58.65;100739.84;5032020;28;67706;-35
2022/04/17 05:40:05;;;;;;;11.32;10.63;;;;;;;33.06;58.43;100728.72;5029793;28;70433;-36
2022/04/17 05:42:36;;;;;;;10.00;9.38;;;;;;;33.09;58.26;100719.28;5035423;28;66256;-35
2022/04/17 05:45:08;;;;;;;9.90;9.07;;;;;;;33.07;58.22;100718.69;5032617;28;70871;-36
2022/04/17 05:47:38;;;;;;;;;;;;;;;32.84;58.47;100720.34;5031973;28;66156;-36
2022/04/17 05:50:09;;;;;;;10.50;9.70;;;;;;;33.11;58.37;100717.16;5030226;28;70701;-36
2022/04/17 05:52:45;;;;;;;10.27;9.65;;;;;;;33.18;58.04;100712.38;5033293;28;66265;-36
2022/04/17 05:55:18;;;;;;;9.98;9.38;;;;;;;33.18;58.08;100712.38;5029473;28;68917;-35
2022/04/17 05:57:50;;;;;;;9.95;8.93;;;;;;;33.22;57.98;100699.97;5030378;28;66641;-35
2022/04/17 06:00:21;;;;;;;9.90;8.98;;;;;;;33.18;57.89;100695.25;5032181;28;69165;-35
2022/04/17 06:02:54;;;;;;;9.52;9.00;;;;;;;33.27;57.68;100693.84;5026334;28;66571;-35
2022/04/17 06:05:26;;;;;;;11.70;10.77;;;;;;;32.86;59.04;100666.59;5036628;28;69491;-37
2022/04/17 06:07:57;;;;;;;15.90;9.93;;;;;;;32.84;60.73;100684.19;5031510;28;66365;-36
2022/04/17 06:10:28;;;;;;;17.27;9.82;;;;;;;32.70;60.30;100686.34;5036832;28;70401;-35
2022/04/17 06:12:59;;;;;;;16.43;10.67;;;;;;;32.42;58.49;100682.41;5034746;28;66380;-35
2022/04/17 06:15:30;;;;;;;12.65;10.90;;;;;;;32.15;56.70;100681.19;5036157;28;69710;-35
2022/04/17 06:18:02;;;;;;;11.10;10.13;;;;;;;32.04;56.18;100686.41;5030371;28;65726;-35
2022/04/17 06:20:33;;;;;;;13.13;10.63;;;;;;;31.84;54.77;100669.56;5032516;28;69941;-36
2022/04/17 06:23:04;;;;;;;10.30;9.57;;;;;;;31.77;53.62;100674.25;5034538;28;65930;-35
2022/04/17 06:25:35;;;;;;;10.68;9.73;;;;;;;31.69;52.63;100664.56;5026488;28;69748;-35
2022/04/17 06:28:07;;;;;;;9.93;9.05;;;;;;;31.52;51.56;100650.00;5037180;28;65989;-35
2022/04/17 06:30:38;;;;;;;10.10;9.43;;;;;;;31.52;51.11;100653.53;5020835;28;69351;-35
2022/04/17 06:33:10;;;;;;;9.85;8.60;;;;;;;31.45;50.24;100649.25;5030201;28;65315;-36
2022/04/17 06:35:41;;;;;;;8.80;8.30;;;;;;;31.41;49.60;100648.09;5028179;28;70751;-37
2022/04/17 06:38:13;;;;;;;8.40;7.90;;;;;;;31.15;48.91;100612.13;5030414;28;65233;-35
2022/04/17 06:40:43;;;;;;;8.68;7.80;;;;;;;31.33;48.32;100632.94;5032206;28;69574;-37
2022/04/17 06:43:15;;;;;;;20.37;7.60;;;;;;;31.25;48.20;100617.00;5033648;28;65506;-35
2022/04/17 06:45:46;;;;;;;7.75;7.15;;;;;;;31.30;47.39;100625.25;5032476;28;69799;-36
2022/04/17 06:48:19;;;;;;;7.60;7.10;;;;;;;31.25;46.95;100633.25;5032075;28;66722;-36
2022/04/17 06:50:52;;;;;;;8.18;7.65;;;;;;;31.27;46.93;100620.31;5035076;28;71612;-36
2022/04/17 06:53:24;;;;;;;7.90;7.07;;;;;;;31.22;46.45;100612.03;5035283;28;66303;-35
2022/04/17 06:55:56;;;;;;;7.15;6.65;;;;;;;31.23;46.43;100605.53;5032380;28;70008;-35
2022/04/17 06:58:27;;;;;;;7.50;6.85;;;;;;;31.22;46.02;100601.19;5031653;28;65488;-35
2022/04/17 07:00:58;;;;;;;7.07;6.63;;;;;;;31.14;44.91;100588.78;5038743;28;70209;-36
2022/04/17 07:03:29;;;;;;;6.72;6.32;;;;;;;31.21;44.96;100594.13;5031490;28;66729;-35
2022/04/17 07:06:00;;;;;;;6.07;5.78;;;;;;;31.22;44.82;100595.78;5032411;28;70446;-35
2022/04/17 07:08:31;;;;;;;6.73;6.33;;;;;;;31.19;44.30;100579.97;5038569;28;65308;-34
2022/04/17 07:11:02;;;;;;;6.88;6.32;;;;;;;31.22;44.36;100585.75;5031661;28;70345;-35
2022/04/17 07:13:39;;;;;;;6.60;6.20;;;;;;;31.21;44.38;100580.59;5034416;28;65823;-35
2022/04/17 07:16:10;;;;;;;6.05;5.65;;;;;;;31.25;43.59;100568.22;5031730;28;70067;-36
2022/04/17 07:18:42;;;;;;;6.10;5.60;;;;;;;31.20;43.79;100551.81;5030872;28;65695;-35
2022/04/17 07:21:13;;;;;;;;;;;;;;;30.99;44.00;100564.00;5033364;28;70080;-36
2022/04/17 07:23:45;;;;;;;6.15;5.65;;;;;;;31.22;43.87;100553.25;5032912;28;66043;-34
2022/04/17 07:26:16;;;;;;;5.90;5.60;;;;;;;31.30;43.30;100565.66;5030835;28;70234;-35
2022/04/17 07:28:47;;;;;;;5.90;5.60;;;;;;;31.35;43.95;100552.22;5031358;28;66246;-35
2022/04/17 07:31:18;;;;;;;6.00;5.70;;;;;;;31.33;42.89;100549.75;5032659;28;69959;-35
2022/04/17 07:33:50;;;;;;;9.02;5.70;;;;;;;31.36;43.53;100548.47;5032401;28;66808;-35
2022/04/17 07:36:21;;;;;;;;;;;;;;;31.09;43.66;100540.72;5025609;28;69802;-36
2022/04/17 07:38:52;;;;;;;5.97;5.40;;;;;;;31.33;42.98;100521.81;5066698;28;66363;-36
2022/04/17 07:41:23;;;;;;;5.78;5.30;;;;;;;31.46;42.76;100543.34;5032497;28;70037;-34
2022/04/17 07:43:54;;;;;;;5.57;5.25;;;;;;;31.40;42.60;100522.59;5030558;28;66135;-36
2022/04/17 07:46:26;;;;;;;10.75;5.63;;;;;;;31.53;42.36;100527.78;5036022;28;69292;-35
2022/04/17 07:48:57;;;;;;;7.15;5.40;;;;;;;31.51;42.26;100523.63;5039448;28;66261;-35
2022/04/17 07:51:28;;;;;;;5.13;4.78;;;;;;;31.52;42.38;100519.88;5031229;28;70595;-35
2022/04/17 07:54:00;;;;;;;5.15;4.80;;;;;;;31.56;41.93;100521.88;5036897;28;65271;-35
2022/04/17 07:56:31;;;;;;;5.28;4.97;;;;;;;31.56;41.70;100513.75;5033644;28;70252;-36
2022/04/17 07:59:04;;;;;;;5.30;5.00;;;;;;;31.60;42.11;100517.66;5038015;28;66138;-36
2022/04/17 08:01:39;;;;;;;5.57;5.07;;;;;;;31.63;41.47;100504.69;5040398;28;70597;-35
2022/04/17 08:04:11;;;;;;;13.05;5.40;;;;;;;31.61;41.45;100513.88;5036100;28;65911;-35
2022/04/17 08:06:43;;;;;;;5.50;4.90;;;;;;;31.69;40.90;100504.56;5035827;28;70118;-35
2022/04/17 08:09:14;;;;;;;5.00;4.53;;;;;;;31.73;41.19;100510.34;5033736;28;66042;-35
2022/04/17 08:11:51;;;;;;;5.00;4.70;;;;;;;31.61;41.40;100492.19;5028662;28;70172;-35
2022/04/17 08:14:22;;;;;;;5.30;4.90;;;;;;;31.79;41.25;100501.28;5028726;28;64014;-35
2022/04/17 08:16:53;;;;;;;5.60;4.80;;;;;;;31.79;41.36;100496.69;5033949;28;69579;-35
2022/04/17 08:19:24;;;;;;;5.63;4.90;;;;;;;31.75;40.74;100486.53;5035785;28;66574;-36
2022/04/17 08:21:55;;;;;;;7.23;5.03;;;;;;;31.75;41.15;100486.53;5026873;28;70034;-36
2022/04/17 08:24:27;;;;;;;4.97;4.67;;;;;;;31.80;40.80;100484.78;5034856;28;66233;-35
2022/04/17 08:27:00;;;;;;;4.97;4.63;;;;;;;31.78;41.13;100464.38;5036415;28;69940;-35
2022/04/17 08:29:32;;;;;;;5.13;4.63;;;;;;;31.84;41.12;100479.69;5033529;28;65379;-35
2022/04/17 08:32:03;;;;;;;;;;;;;;;31.58;41.66;100473.69;5029143;28;69773;-35
2022/04/17 08:34:34;;;;;;;5.88;5.03;;;;;;;31.81;40.71;100463.91;5027102;28;66198;-35
2022/04/17 08:37:05;;;;;;;4.50;4.20;;;;;;;31.59;41.40;100426.56;5028404;28;69840;-36
2022/04/17 08:39:37;;;;;;;5.20;4.80;;;;;;;31.75;41.11;100454.00;5035045;28;65984;-35
2022/04/17 08:42:10;;;;;;;4.83;4.53;;;;;;;31.87;41.41;100468.38;5026390;28;70203;-36
2022/04/17 08:44:42;;;;;;;4.80;4.50;;;;;;;31.79;40.92;100457.91;5028818;28;66263;-35
2022/04/17 08:47:13;;;;;;;5.25;4.95;;;;;;;31.86;41.04;100469.44;5029818;28;70501;-35
2022/04/17 08:49:45;;;;;;;4.82;4.43;;;;;;;31.81;41.61;100463.91;5031978;28;66629;-35
2022/04/17 08:52:17;;;;;;;5.32;4.47;;;;;;;31.78;41.22;100469.78;5030874;28;69657;-35
2022/04/17 08:54:53;;;;;;;4.53;4.32;;;;;;;31.91;41.29;100480.44;5033792;28;66314;-35
2022/04/17 08:57:24;;;;;;;4.90;4.60;;;;;;;31.89;41.05;100493.38;5032056;28;70400;-35
2022/04/17 08:59:55;;;;;;;4.90;4.50;;;;;;;31.85;41.21;100486.78;5030349;28;67197;-35
2022/04/17 09:02:27;;;;;;;4.35;4.15;;;;;;;31.77;40.86;100468.16;5025780;28;70013;-35
2022/04/17 09:04:59;;;;;;;5.47;4.50;;;;;;;31.79;41.12;100479.59;5034214;28;66326;-35
2022/04/17 09:07:43;;;;;;;6.15;5.35;;;;;;;31.44;41.64;100425.34;5030743;28;70157;-35
2022/04/17 09:10:25;;;;;;;5.70;5.20;;;;;;;31.78;41.78;100491.50;5035966;28;65693;-34
2022/04/17 09:13:01;;;;;;;5.15;4.72;;;;;;;31.37;41.82;100409.19;5034426;28;69805;-35
2022/04/17 09:15:35;;;;;;;6.05;4.90;;;;;;;31.35;41.90;100401.28;5032542;28;65675;-35
2022/04/17 09:18:08;;;;;;;10.88;5.10;;;;;;;31.79;41.94;100472.28;5030984;28;70324;-35
2022/04/17 09:20:49;;;;;;;8.45;4.95;;;;;;;31.54;41.96;100431.84;5026994;28;65712;-35
2022/04/17 09:23:37;;;;;;;7.30;5.00;;;;;;;31.22;41.73;100400.69;5029322;28;70157;-35
2022/04/17 09:26:09;;;;;;;7.20;5.35;;;;;;;31.63;41.93;100464.03;5030054;28;66716;-36
2022/04/17 09:28:44;;;;;;;4.85;4.18;;;;;;;31.44;41.67;100404.50;5029235;28;70208;-35
2022/04/17 09:31:19;;;;;;;6.72;4.45;;;;;;;31.98;41.67;100470.31;5032817;28;65426;-35
2022/04/17 09:33:51;;;;;;;11.40;4.60;;;;;;;32.12;41.54;100480.88;5026831;28;70385;-35
2022/04/17 09:36:31;;;;;;;7.85;4.32;;;;;;;32.04;40.73;100463.91;5029817;28;66769;-35
2022/04/17 09:39:15;;;;;;;10.90;5.35;;;;;;;32.23;41.76;100488.16;5027015;28;70357;-36
2022/04/17 09:41:58;;;;;;;15.80;5.68;;;;;;;31.88;41.67;100440.19;5032444;28;66325;-35
2022/04/17 09:44:46;;;;;;;27.27;5.75;;;;;;;32.17;42.09;100483.69;5029606;28;70389;-36
2022/04/17 09:47:20;;;;;;;25.95;5.78;;;;;;;32.09;44.98;100437.94;5028966;28;66347;-36
2022/04/17 09:49:56;;;;;;;6.85;6.07;;;;;;;32.28;48.37;100453.00;5031782;28;69804;-37
2022/04/17 09:52:40;;;;;;;9.25;6.85;;;;;;;32.81;50.14;100521.69;5021703;28;66335;-37
2022/04/17 09:55:12;;;;;;;10.57;6.47;;;;;;;32.92;49.99;100508.06;5035355;28;69568;-36
2022/04/17 09:57:55;;;;;;;7.82;6.53;;;;;;;33.05;49.84;100514.31;5036596;28;65388;-36
2022/04/17 10:00:27;;;;;;;10.82;6.28;;;;;;;33.19;50.81;100526.50;5032741;28;70180;-36
2022/04/17 10:03:00;;;;;;;6.85;6.38;;;;;;;33.14;53.73;100515.53;5033865;28;43331;-37
2022/04/17 10:05:31;;;;;;;7.78;7.10;;;;;;;33.13;53.74;100508.47;5027294;28;69745;-36
2022/04/17 10:08:03;;;;;;;8.40;6.77;;;;;;;33.25;54.18;100527.44;5030903;28;64968;-37
2022/04/17 10:10:35;;;;;;;11.50;6.90;;;;;;;33.34;54.96;100532.19;5037223;28;69986;-37
2022/04/17 10:13:07;;;;;;;7.90;7.10;;;;;;;32.92;55.21;100475.44;5024882;28;66602;-37
2022/04/17 10:15:40;;;;;;;7.15;6.47;;;;;;;33.00;54.58;100468.00;5030197;28;69959;-36
2022/04/17 10:18:11;;;;;;;7.00;6.28;;;;;;;33.52;55.49;100539.34;5030868;28;65622;-36
2022/04/17 10:20:42;;;;;;;;;;;;;;;33.26;56.41;100546.19;5025562;28;69953;-37
2022/04/17 10:23:15;;;;;;;7.07;6.45;;;;;;;33.01;55.52;100466.94;5027004;28;66530;-35
2022/04/17 10:25:48;;;;;;;7.30;6.60;;;;;;;33.58;55.42;100548.41;5031095;28;70115;-36
2022/04/17 10:28:21;;;;;;;11.90;7.47;;;;;;;33.57;55.50;100546.75;5025064;28;66496;-35
2022/04/17 10:31:05;;;;;;;14.23;8.48;;;;;;;33.59;56.08;100550.06;5028897;28;69252;-38
2022/04/17 10:33:42;;;;;;;20.80;10.02;;;;;;;33.71;54.87;100563.56;5031621;28;66801;-38
2022/04/17 10:36:34;;;;;;;21.05;12.05;;;;;;;33.62;55.73;100560.44;5024543;28;69300;-38
2022/04/17 10:39:42;;;;;;;26.42;15.85;;;;;;;33.09;56.13;100486.38;5031697;28;66353;-36
2022/04/17 10:42:14;;;;;;;18.17;13.35;;;;;;;33.75;55.54;100581.88;5029922;28;70107;-37
2022/04/17 10:45:02;;;;;;;13.25;11.93;;;;;;;33.21;55.29;100521.66;5029416;28;65109;-36
2022/04/17 10:47:33;;;;;;;17.05;10.88;;;;;;;33.57;55.11;100563.06;5024923;28;70312;-36
2022/04/17 10:50:08;;;;;;;16.85;10.88;;;;;;;33.20;55.77;100503.69;5030826;28;65623;-38
2022/04/17 10:52:41;;;;;;;18.10;12.60;;;;;;;33.60;55.87;100565.31;5018703;28;69225;-36
2022/04/17 10:55:18;;;;;;;13.55;12.27;;;;;;;33.62;56.05;100576.75;5038397;28;64798;-37
2022/04/17 10:57:50;;;;;;;13.90;12.48;;;;;;;33.66;56.43;100588.00;5025548;28;70178;-37
2022/04/17 11:00:28;;;;;;;18.13;12.38;;;;;;;33.83;56.32;100604.31;5035344;28;66412;-37
2022/04/17 11:03:26;;;;;;;15.55;12.43;;;;;;;33.75;55.96;100608.25;5028254;28;70324;-38
2022/04/17 11:06:09;;;;;;;27.88;17.85;;;;;;;33.52;55.30;100577.44;5036370;28;66837;-37
2022/04/17 11:08:57;;;;;;;26.08;18.05;;;;;;;33.71;56.60;100593.50;5029395;28;70117;-37
2022/04/17 11:11:37;;;;;;;22.67;17.33;;;;;;;33.91;56.53;100617.50;5032838;28;66315;-36
2022/04/17 11:14:11;;;;;;;23.02;17.52;;;;;;;33.95;56.08;100624.09;5030990;28;70453;-36
2022/04/17 11:16:53;;;;;;;16.92;15.13;;;;;;;33.98;55.96;100621.69;5031356;28;66413;-37
2022/04/17 11:19:28;;;;;;;18.30;15.90;;;;;;;33.48;54.94;100537.34;5027856;28;69962;-38
2022/04/17 11:22:02;;;;;;;16.23;13.77;;;;;;;33.90;55.22;100603.06;5030546;28;65409;-37
2022/04/17 11:24:55;;;;;;;16.45;13.40;;;;;;;33.97;55.72;100627.41;5034695;28;69861;-37
2022/04/17 11:27:43;;;;;;;19.13;13.80;;;;;;;33.49;55.75;100538.97;5030835;28;66559;-36
2022/04/17 11:30:35;;;;;;;18.05;13.27;;;;;;;34.07;55.53;100621.31;5032366;28;70630;-37
2022/04/17 11:33:06;;;;;;;;;;;;;;;33.76;56.49;100621.59;5033533;28;65751;-36
2022/04/17 11:35:40;;;;;;;13.13;11.82;;;;;;;34.03;56.14;100620.97;5032969;28;68929;-36
2022/04/17 11:38:12;;;;;;;13.80;12.43;;;;;;;34.03;55.41;100623.69;5032323;28;65726;-35
2022/04/17 11:40:44;;;;;;;18.07;12.27;;;;;;;33.99;55.18;100619.78;5033302;28;71392;-37
2022/04/17 11:43:16;;;;;;;15.40;11.15;;;;;;;33.56;55.31;100550.56;5013929;28;66108;-36
2022/04/17 11:45:47;;;;;;;12.68;11.38;;;;;;;34.07;55.62;100640.38;5032273;28;69277;-35
2022/04/17 11:48:20;;;;;;;11.57;10.55;;;;;;;34.09;55.57;100641.78;5031266;28;66570;-37
2022/04/17 11:50:55;;;;;;;14.38;10.70;;;;;;;33.91;56.12;100628.41;5028073;28;69868;-36
2022/04/17 11:53:25;;;;;;;12.90;10.52;;;;;;;33.91;55.81;100631.94;5025592;28;67006;-36
2022/04/17 11:55:56;;;;;;;11.60;10.40;;;;;;;33.85;56.15;100629.34;5026859;28;70958;-37
2022/04/17 11:58:29;;;;;;;10.93;10.00;;;;;;;34.04;55.37;100671.59;5031246;28;66101;-36